createdAt,value
2019-05-03T00:00:02.483Z,69.39
2019-05-03T00:02:33.954Z,70.67
2019-05-03T00:05:03.924Z,70.14
2019-05-03T00:07:31.715Z,70.03
2019-05-03T00:09:58.698Z,69.14
2019-05-03T00:12:26.102Z,70.34
2019-05-03T00:14:55.216Z,70.08
2019-05-03T00:17:22.159Z,70.51
2019-05-03T00:19:49.315Z,70.22
2019-05-03T00:22:16.126Z,70.84
2019-05-03T00:24:42.902Z,70.34
2019-05-03T00:27:09.769Z,69.85
2019-05-03T00:29:36.416Z,70.13
2019-05-03T00:32:03.361Z,68.67
2019-05-03T00:34:32.427Z,68.03
2019-05-03T00:37:01.802Z,66.85
2019-05-03T00:39:38.337Z,66.81
2019-05-03T00:42:05.091Z,66.73
2019-05-03T00:44:31.944Z,66.88
2019-05-03T00:46:58.670Z,66.41
2019-05-03T00:49:25.453Z,66.87
2019-05-03T00:51:52.152Z,66.74
2019-05-03T00:54:19.501Z,67.00
2019-05-03T00:56:46.488Z,66.87
2019-05-03T00:59:13.231Z,67.54
2019-05-03T01:01:40.110Z,67.68
2019-05-03T01:04:06.964Z,67.12
2019-05-03T01:06:33.624Z,67.47
2019-05-03T01:09:02.541Z,67.62
2019-05-03T01:11:29.139Z,67.61
2019-05-03T01:13:56.014Z,67.56
2019-05-03T01:16:24.640Z,67.94
2019-05-03T01:18:52.327Z,67.99
2019-05-03T01:21:19.530Z,67.76
2019-05-03T01:23:46.215Z,67.41
2019-05-03T01:26:12.948Z,67.25
2019-05-03T01:28:39.691Z,67.59
2019-05-03T01:31:06.602Z,67.57
2019-05-03T01:33:33.337Z,66.99
2019-05-03T01:36:00.062Z,66.96
2019-05-03T01:38:27.274Z,66.70
2019-05-03T01:40:53.918Z,66.81
2019-05-03T01:43:22.238Z,66.75
2019-05-03T01:45:49.379Z,66.87
2019-05-03T01:48:26.765Z,67.14
2019-05-03T01:51:11.799Z,67.14
2019-05-03T01:53:41.727Z,67.32
2019-05-03T01:56:08.620Z,67.03
2019-05-03T01:58:35.677Z,66.97
2019-05-03T02:01:10.326Z,67.07
2019-05-03T02:03:42.387Z,67.10
2019-05-03T02:06:09.217Z,66.85
2019-05-03T02:08:35.888Z,66.96
2019-05-03T02:11:02.665Z,66.70
2019-05-03T02:13:29.345Z,66.86
2019-05-03T02:15:56.005Z,66.33
2019-05-03T02:18:23.219Z,66.94
2019-05-03T02:20:49.879Z,66.93
2019-05-03T02:23:16.513Z,66.75
2019-05-03T02:25:55.149Z,66.62
2019-05-03T02:28:12.632Z,66.44
2019-05-03T02:30:43.697Z,66.25
2019-05-03T02:33:09.412Z,66.45
2019-05-03T02:35:36.060Z,66.46
2019-05-03T02:38:04.098Z,66.59
2019-05-03T02:40:33.589Z,66.55
2019-05-03T02:43:19.929Z,66.50
2019-05-03T02:45:57.608Z,66.69
2019-05-03T02:48:36.459Z,67.09
2019-05-03T02:51:06.582Z,67.41
2019-05-03T02:53:32.753Z,67.38
2019-05-03T02:56:13.697Z,67.21
2019-05-03T02:58:30.146Z,67.54
2019-05-03T03:01:00.610Z,67.71
2019-05-03T03:03:28.006Z,67.67
2019-05-03T03:05:59.343Z,67.90
2019-05-03T03:08:28.479Z,67.91
2019-05-03T03:11:06.840Z,68.03
2019-05-03T03:13:36.859Z,68.20
2019-05-03T03:16:06.893Z,68.30
2019-05-03T03:18:39.512Z,68.45
2019-05-03T03:21:16.355Z,68.70
2019-05-03T03:23:52.953Z,69.33
2019-05-03T03:26:36.468Z,69.36
2019-05-03T03:28:56.478Z,69.04
2019-05-03T03:31:48.133Z,69.24
2019-05-03T03:34:18.196Z,69.65
2019-05-03T03:37:03.480Z,69.87
2019-05-03T03:39:19.293Z,70.76
2019-05-03T03:41:46.336Z,70.22
2019-05-03T03:44:15.814Z,70.66
2019-05-03T03:46:45.430Z,70.23
2019-05-03T03:49:15.533Z,70.49
2019-05-03T03:51:45.558Z,70.09
2019-05-03T03:54:16.169Z,70.93
2019-05-03T03:56:56.034Z,70.69
2019-05-03T03:59:15.432Z,70.25
2019-05-03T04:01:42.514Z,70.61
2019-05-03T04:04:09.671Z,70.39
2019-05-03T04:06:42.403Z,70.93
2019-05-03T04:09:09.155Z,71.28
2019-05-03T04:11:39.732Z,71.18
2019-05-03T04:14:08.518Z,70.61
2019-05-03T04:16:56.177Z,71.43
2019-05-03T04:19:25.135Z,70.88
2019-05-03T04:21:52.595Z,70.67
2019-05-03T04:24:19.758Z,71.46
2019-05-03T04:26:46.586Z,71.12
2019-05-03T04:29:15.867Z,71.66
2019-05-03T04:31:42.000Z,71.62
2019-05-03T04:34:08.910Z,70.74
2019-05-03T04:36:35.947Z,70.75
2019-05-03T04:39:05.400Z,71.59
2019-05-03T04:41:32.547Z,71.46
2019-05-03T04:43:59.310Z,71.50
2019-05-03T04:46:26.320Z,70.96
2019-05-03T04:48:55.908Z,71.35
2019-05-03T04:51:22.685Z,71.12
2019-05-03T04:53:51.347Z,71.56
2019-05-03T04:56:18.021Z,71.58
2019-05-03T04:58:45.851Z,71.84
2019-05-03T05:01:15.807Z,70.98
2019-05-03T05:03:45.543Z,70.27
2019-05-03T05:06:11.417Z,70.25
2019-05-03T05:08:38.148Z,71.66
2019-05-03T05:11:06.686Z,70.76
2019-05-03T05:13:35.615Z,71.25
2019-05-03T05:16:02.675Z,70.37
2019-05-03T05:18:35.319Z,70.43
2019-05-03T05:21:10.007Z,70.75
2019-05-03T05:23:38.735Z,70.13
2019-05-03T05:26:14.445Z,70.32
2019-05-03T05:28:49.820Z,70.16
2019-05-03T05:31:16.612Z,69.91
2019-05-03T05:33:44.602Z,70.45
2019-05-03T05:36:11.875Z,70.67
2019-05-03T05:38:38.995Z,70.11
2019-05-03T05:41:05.795Z,69.40
2019-05-03T05:43:32.660Z,69.60
2019-05-03T05:45:59.646Z,68.81
2019-05-03T05:48:34.945Z,69.05
2019-05-03T05:51:04.320Z,69.01
2019-05-03T05:53:30.970Z,69.52
2019-05-03T05:56:02.273Z,68.79
2019-05-03T05:58:35.399Z,68.51
2019-05-03T06:01:05.541Z,68.23
2019-05-03T06:03:34.447Z,68.55
2019-05-03T06:06:05.276Z,67.89
2019-05-03T06:08:44.654Z,67.66
2019-05-03T06:11:17.097Z,67.51
2019-05-03T06:13:48.427Z,68.35
2019-05-03T06:16:20.083Z,68.22
2019-05-03T06:18:51.594Z,68.35
2019-05-03T06:21:21.326Z,67.23
2019-05-03T06:23:52.947Z,67.82
2019-05-03T06:26:39.921Z,67.36
2019-05-03T06:29:07.221Z,67.25
2019-05-03T06:31:48.380Z,67.27
2019-05-03T06:34:15.217Z,66.99
2019-05-03T06:36:44.335Z,66.94
2019-05-03T06:39:11.103Z,66.27
2019-05-03T06:41:37.913Z,66.34
2019-05-03T06:44:07.822Z,65.73
2019-05-03T06:46:51.935Z,65.57
2019-05-03T06:49:18.693Z,65.10
2019-05-03T06:51:49.470Z,65.05
2019-05-03T06:54:15.766Z,64.60
2019-05-03T06:56:45.019Z,64.52
2019-05-03T06:59:28.517Z,64.60
2019-05-03T07:02:03.098Z,64.41
2019-05-03T07:04:38.210Z,64.16
2019-05-03T07:07:09.761Z,64.30
2019-05-03T07:09:41.103Z,63.52
2019-05-03T07:12:08.302Z,63.36
2019-05-03T07:14:35.081Z,63.60
2019-05-03T07:17:02.137Z,63.66
2019-05-03T07:19:29.502Z,62.86
2019-05-03T07:21:56.280Z,62.89
2019-05-03T07:24:24.891Z,62.79
2019-05-03T07:26:51.865Z,62.24
2019-05-03T07:29:18.971Z,61.04
2019-05-03T07:31:46.279Z,60.42
2019-05-03T07:34:16.067Z,60.01
2019-05-03T07:36:44.684Z,58.83
2019-05-03T07:39:11.557Z,58.46
2019-05-03T07:41:38.388Z,58.34
2019-05-03T07:44:05.498Z,57.06
2019-05-03T07:46:32.396Z,56.93
2019-05-03T07:48:59.192Z,57.54
2019-05-03T07:51:25.881Z,57.75
2019-05-03T07:53:52.577Z,57.53
2019-05-03T07:56:19.572Z,57.00
2019-05-03T07:58:59.474Z,56.38
2019-05-03T08:01:18.966Z,56.39
2019-05-03T08:03:45.713Z,55.77
2019-05-03T08:06:14.863Z,55.86
2019-05-03T08:08:42.101Z,56.07
2019-05-03T08:11:10.909Z,55.76
2019-05-03T08:13:37.585Z,56.66
2019-05-03T08:16:07.136Z,56.57
2019-05-03T08:18:35.496Z,56.72
2019-05-03T08:21:05.137Z,54.83
2019-05-03T08:23:31.786Z,54.25
2019-05-03T08:25:58.581Z,56.71
2019-05-03T08:28:25.332Z,55.96
2019-05-03T08:31:06.267Z,55.22
2019-05-03T08:33:47.212Z,55.54
2019-05-03T08:36:15.634Z,56.07
2019-05-03T08:38:42.697Z,52.46
2019-05-03T08:41:11.404Z,54.92
2019-05-03T08:43:38.199Z,56.50
2019-05-03T08:46:05.230Z,52.34
2019-05-03T08:48:32.554Z,52.67
2019-05-03T08:50:59.239Z,56.07
2019-05-03T08:53:26.030Z,48.92
2019-05-03T08:55:52.703Z,51.64
2019-05-03T08:58:19.593Z,52.15
2019-05-03T09:00:46.743Z,52.28
2019-05-03T09:03:14.449Z,52.85
2019-05-03T09:05:41.885Z,52.27
2019-05-03T09:08:11.690Z,46.48
2019-05-03T09:10:58.444Z,48.99
2019-05-03T09:13:25.310Z,46.26
2019-05-03T09:15:55.240Z,44.31
2019-05-03T09:18:22.431Z,47.70
2019-05-03T09:20:49.096Z,49.72
2019-05-03T09:23:15.864Z,49.87
2019-05-03T09:25:42.860Z,45.83
2019-05-03T09:28:09.650Z,48.00
2019-05-03T09:30:36.477Z,47.13
2019-05-03T09:33:06.007Z,46.79
2019-05-03T09:35:35.338Z,47.61
2019-05-03T09:38:01.838Z,47.50
2019-05-03T09:40:28.990Z,47.55
2019-05-03T09:42:55.764Z,49.39
2019-05-03T09:45:24.581Z,47.79
2019-05-03T09:47:51.544Z,45.05
2019-05-03T09:50:18.586Z,49.26
2019-05-03T09:52:47.049Z,47.85
2019-05-03T09:55:16.018Z,47.52
2019-05-03T09:57:44.478Z,46.08
2019-05-03T10:00:12.757Z,46.51
2019-05-03T10:02:39.515Z,44.66
2019-05-03T10:05:06.576Z,46.26
2019-05-03T10:07:35.088Z,45.29
2019-05-03T10:10:05.745Z,41.55
2019-05-03T10:12:32.771Z,45.53
2019-05-03T10:14:59.443Z,43.68
2019-05-03T10:17:35.139Z,44.07
2019-05-03T10:20:08.401Z,40.85
2019-05-03T10:22:35.380Z,44.33
2019-05-03T10:25:05.011Z,46.27
2019-05-03T10:27:34.730Z,44.70
2019-05-03T10:30:10.543Z,44.61
2019-05-03T10:32:35.628Z,44.35
2019-05-03T10:35:08.944Z,42.80
2019-05-03T10:37:36.019Z,45.48
2019-05-03T10:40:07.806Z,41.98
2019-05-03T10:42:35.137Z,44.71
2019-05-03T10:45:04.503Z,44.00
2019-05-03T10:47:31.494Z,41.65
2019-05-03T10:49:58.265Z,41.42
2019-05-03T10:52:26.939Z,43.56
2019-05-03T10:54:55.734Z,45.15
2019-05-03T10:57:24.819Z,41.59
2019-05-03T10:59:51.722Z,41.40
2019-05-03T11:02:36.100Z,43.48
2019-05-03T11:05:05.294Z,44.00
2019-05-03T11:07:32.194Z,39.01
2019-05-03T11:10:01.003Z,42.45
2019-05-03T11:12:27.826Z,42.24
2019-05-03T11:14:54.646Z,41.60
2019-05-03T11:17:21.585Z,41.47
2019-05-03T11:19:55.009Z,43.07
2019-05-03T11:22:22.096Z,43.56
2019-05-03T11:24:50.919Z,40.89
2019-05-03T11:27:19.942Z,38.38
2019-05-03T11:29:49.458Z,42.23
2019-05-03T11:32:41.702Z,40.28
2019-05-03T11:35:15.144Z,43.39
2019-05-03T11:37:53.668Z,40.59
2019-05-03T11:40:26.958Z,41.21
2019-05-03T11:42:56.296Z,37.70
2019-05-03T11:45:32.446Z,38.44
2019-05-03T11:48:56.125Z,42.86
2019-05-03T11:50:40.604Z,37.99
2019-05-03T11:53:11.554Z,40.17
2019-05-03T11:55:42.278Z,38.49
2019-05-03T11:58:20.199Z,39.70
2019-05-03T12:00:51.449Z,41.33
2019-05-03T12:03:20.332Z,35.68
2019-05-03T12:05:49.480Z,39.40
2019-05-03T12:08:18.342Z,40.63
2019-05-03T12:10:58.689Z,38.66
2019-05-03T12:13:27.052Z,38.07
2019-05-03T12:16:18.035Z,38.93
2019-05-03T12:18:50.268Z,38.24
2019-05-03T12:21:14.720Z,38.02
2019-05-03T12:23:42.520Z,40.80
2019-05-03T12:26:17.318Z,41.06
2019-05-03T12:28:55.105Z,40.79
2019-05-03T12:31:36.322Z,40.50
2019-05-03T12:33:57.997Z,41.08
2019-05-03T12:36:28.382Z,41.32
2019-05-03T12:38:58.676Z,40.25
2019-05-03T12:41:30.159Z,41.46
2019-05-03T12:43:57.507Z,41.14
2019-05-03T12:46:26.434Z,41.28
2019-05-03T12:48:56.640Z,41.87
2019-05-03T12:54:27.482Z,42.72
2019-05-03T12:56:56.728Z,40.48
2019-05-03T12:59:36.082Z,41.48
2019-05-03T13:02:15.386Z,40.55
2019-05-03T13:04:45.028Z,42.44
2019-05-03T13:07:17.535Z,40.27
2019-05-03T13:10:01.105Z,40.58
2019-05-03T13:12:34.678Z,43.20
2019-05-03T13:15:00.600Z,40.53
2019-05-03T13:17:39.717Z,41.48
2019-05-03T13:20:08.859Z,40.96
2019-05-03T13:22:46.046Z,39.41
2019-05-03T13:25:12.379Z,42.94
2019-05-03T13:27:41.231Z,41.82
2019-05-03T13:30:11.808Z,41.34
2019-05-03T13:32:39.006Z,40.87
2019-05-03T13:35:08.146Z,37.22
2019-05-03T13:37:36.918Z,41.89
2019-05-03T13:40:09.348Z,37.99
2019-05-03T13:42:38.153Z,41.35
2019-05-03T13:45:08.223Z,39.23
2019-05-03T13:47:37.367Z,36.97
2019-05-03T13:50:05.874Z,38.53
2019-05-03T13:52:34.600Z,40.95
2019-05-03T13:55:05.508Z,41.38
2019-05-03T13:57:35.297Z,39.62
2019-05-03T14:00:05.771Z,40.52
2019-05-03T14:02:35.762Z,40.87
2019-05-03T14:05:15.551Z,40.69
2019-05-03T14:07:44.547Z,41.65
2019-05-03T14:10:13.659Z,42.64
2019-05-03T14:12:40.580Z,42.31
2019-05-03T14:15:28.910Z,41.56
2019-05-03T14:17:56.068Z,43.32
2019-05-03T14:20:27.487Z,42.73
2019-05-03T14:22:56.735Z,41.71
2019-05-03T14:25:27.636Z,43.00
2019-05-03T14:28:00.646Z,43.09
2019-05-03T14:30:28.281Z,42.45
2019-05-03T14:32:55.828Z,42.95
2019-05-03T14:35:25.772Z,43.06
2019-05-03T14:37:54.912Z,42.96
2019-05-03T14:40:21.423Z,43.98
2019-05-03T14:42:51.352Z,42.19
2019-05-03T14:45:21.989Z,42.92
2019-05-03T14:47:48.695Z,42.68
2019-05-03T14:50:16.193Z,42.43
2019-05-03T14:52:45.298Z,43.34
2019-05-03T14:55:26.452Z,43.73
2019-05-03T14:57:55.396Z,43.29
2019-05-03T15:00:36.310Z,42.86
2019-05-03T15:03:12.028Z,42.66
2019-05-03T15:05:40.561Z,43.52
2019-05-03T15:08:07.872Z,44.53
2019-05-03T15:10:35.284Z,42.33
2019-05-03T15:13:02.253Z,44.68
2019-05-03T15:15:34.736Z,42.06
2019-05-03T15:18:00.499Z,42.46
2019-05-03T15:20:28.683Z,44.02
2019-05-03T15:22:57.292Z,43.28
2019-05-03T15:25:25.065Z,42.03
2019-05-03T15:27:52.193Z,43.36
2019-05-03T15:30:21.054Z,44.35
2019-05-03T15:32:59.497Z,45.00
2019-05-03T15:35:19.888Z,43.23
2019-05-03T15:37:48.693Z,44.04
2019-05-03T15:40:19.242Z,42.92
2019-05-03T15:42:50.273Z,43.62
2019-05-03T15:45:40.557Z,44.38
2019-05-03T15:48:09.325Z,45.52
2019-05-03T15:50:36.245Z,45.11
2019-05-03T15:53:04.407Z,45.35
2019-05-03T15:55:31.465Z,44.55
2019-05-03T15:57:58.287Z,44.50
2019-05-03T16:00:25.790Z,44.70
2019-05-03T16:02:54.714Z,44.39
2019-05-03T16:05:22.549Z,45.17
2019-05-03T16:07:50.698Z,46.47
2019-05-03T16:10:21.150Z,45.19
2019-05-03T16:12:48.114Z,46.25
2019-05-03T16:15:15.101Z,45.34
2019-05-03T16:17:42.075Z,44.75
2019-05-03T16:20:09.439Z,45.34
2019-05-03T16:22:36.411Z,46.47
2019-05-03T16:25:07.043Z,46.10
2019-05-03T16:27:35.616Z,45.21
2019-05-03T16:30:09.498Z,44.62
2019-05-03T16:32:36.557Z,46.61
2019-05-03T16:35:04.812Z,44.93
2019-05-03T16:37:31.683Z,44.93
2019-05-03T16:39:58.690Z,44.80
2019-05-03T16:42:25.534Z,43.68
2019-05-03T16:44:54.889Z,44.59
2019-05-03T16:47:24.943Z,43.59
2019-05-03T16:49:52.016Z,43.71
2019-05-03T16:52:18.948Z,44.66
2019-05-03T16:54:45.778Z,43.37
2019-05-03T16:57:12.740Z,43.03
2019-05-03T16:59:39.686Z,44.03
2019-05-03T17:02:06.641Z,42.47
2019-05-03T17:04:51.994Z,43.41
2019-05-03T17:07:24.627Z,43.39
2019-05-03T17:09:56.421Z,45.22
2019-05-03T17:12:25.815Z,43.55
2019-05-03T17:14:54.701Z,44.56
2019-05-03T17:17:21.837Z,42.87
2019-05-03T17:19:48.693Z,43.77
2019-05-03T17:22:17.317Z,43.61
2019-05-03T17:24:44.740Z,44.39
2019-05-03T17:27:11.497Z,44.88
2019-05-03T17:29:38.269Z,45.53
2019-05-03T17:32:05.139Z,45.81
2019-05-03T17:34:32.422Z,44.95
2019-05-03T17:36:59.218Z,45.74
2019-05-03T17:39:45.547Z,45.24
2019-05-03T17:42:31.042Z,45.71
2019-05-03T17:45:00.820Z,45.85
2019-05-03T17:47:27.472Z,46.50
2019-05-03T17:49:54.758Z,47.15
2019-05-03T17:52:34.382Z,46.59
2019-05-03T17:55:06.060Z,46.72
2019-05-03T17:57:35.018Z,46.51
2019-05-03T18:00:23.746Z,46.53
2019-05-03T18:02:50.985Z,47.32
2019-05-03T18:05:28.434Z,46.71
2019-05-03T18:08:09.003Z,47.69
2019-05-03T18:10:38.067Z,48.46
2019-05-03T18:13:04.825Z,49.14
2019-05-03T18:15:31.587Z,49.88
2019-05-03T18:17:58.530Z,51.16
2019-05-03T18:20:25.623Z,51.78
2019-05-03T18:22:54.702Z,52.34
2019-05-03T18:25:21.788Z,52.20
2019-05-03T18:27:48.575Z,53.08
2019-05-03T18:30:15.650Z,53.70
2019-05-03T18:32:42.453Z,54.59
2019-05-03T18:35:09.420Z,53.94
2019-05-03T18:37:36.249Z,54.45
2019-05-03T18:40:06.023Z,56.10
2019-05-03T18:42:35.213Z,56.00
2019-05-03T18:45:10.562Z,55.46
2019-05-03T18:47:37.706Z,56.70
2019-05-03T18:50:05.932Z,55.19
2019-05-03T18:52:34.367Z,55.34
2019-05-03T18:55:04.347Z,55.94
2019-05-03T18:57:31.554Z,55.71
2019-05-03T18:59:58.480Z,55.67
2019-05-03T19:02:25.456Z,56.15
2019-05-03T19:04:54.601Z,56.94
2019-05-03T19:07:40.218Z,56.33
2019-05-03T19:10:09.178Z,57.13
2019-05-03T19:12:37.881Z,57.24
2019-05-03T19:15:05.814Z,57.38
2019-05-03T19:17:37.704Z,57.11
2019-05-03T19:20:06.493Z,57.42
2019-05-03T19:22:34.433Z,57.02
2019-05-03T19:25:01.462Z,56.75
2019-05-03T19:27:28.194Z,56.99
2019-05-03T19:29:55.396Z,58.29
2019-05-03T19:32:22.499Z,58.07
2019-05-03T19:34:51.396Z,57.52
2019-05-03T19:37:18.248Z,57.85
2019-05-03T19:39:45.503Z,57.79
2019-05-03T19:42:12.190Z,57.93
2019-05-03T19:44:38.926Z,57.90
2019-05-03T19:47:06.733Z,57.42
2019-05-03T19:49:35.354Z,57.46
2019-05-03T19:52:02.377Z,57.45
2019-05-03T19:54:29.129Z,57.64
2019-05-03T19:56:56.394Z,57.47
2019-05-03T19:59:43.432Z,57.62
2019-05-03T20:02:27.294Z,57.01
2019-05-03T20:05:08.274Z,57.40
2019-05-03T20:07:54.289Z,57.78
2019-05-03T20:10:22.720Z,57.93
2019-05-03T20:12:49.374Z,58.10
2019-05-03T20:15:17.272Z,57.81
2019-05-03T20:17:56.202Z,58.11
2019-05-03T20:20:13.076Z,57.85
2019-05-03T20:22:39.792Z,58.40
2019-05-03T20:25:06.686Z,58.54
2019-05-03T20:27:35.205Z,58.07
2019-05-03T20:30:05.796Z,57.93
2019-05-03T20:32:34.481Z,58.06
2019-05-03T20:35:13.068Z,58.92
2019-05-03T20:37:31.753Z,58.75
2019-05-03T20:39:58.461Z,58.30
2019-05-03T20:42:44.864Z,58.17
2019-05-03T20:45:14.437Z,59.23
2019-05-03T20:47:43.159Z,58.77
2019-05-03T20:50:16.596Z,58.01
2019-05-03T20:52:44.514Z,58.57
2019-05-03T20:55:12.029Z,58.72
2019-05-03T20:57:39.256Z,58.25
2019-05-03T21:00:08.301Z,58.35
2019-05-03T21:02:35.899Z,57.95
2019-05-03T21:05:06.234Z,58.01
2019-05-03T21:07:35.151Z,58.60
2019-05-03T21:10:05.979Z,58.38
2019-05-03T21:12:34.560Z,58.87
2019-05-03T21:15:04.946Z,58.76
2019-05-03T21:17:36.260Z,59.09
2019-05-03T21:20:11.841Z,59.23
2019-05-03T21:22:40.581Z,58.97
2019-05-03T21:25:09.321Z,59.26
2019-05-03T21:27:36.442Z,59.71
2019-05-03T21:30:08.069Z,60.01
2019-05-03T21:32:35.801Z,60.04
2019-05-03T21:35:05.531Z,60.09
2019-05-03T21:37:32.308Z,59.38
2019-05-03T21:39:59.026Z,60.01
2019-05-03T21:42:25.846Z,59.87
2019-05-03T21:44:52.616Z,59.78
2019-05-03T21:47:21.226Z,59.58
2019-05-03T21:49:49.951Z,60.16
2019-05-03T21:52:16.979Z,60.10
2019-05-03T21:54:45.071Z,60.57
2019-05-03T21:57:11.966Z,59.86
2019-05-03T21:59:39.077Z,61.07
2019-05-03T22:02:05.975Z,61.09
2019-05-03T22:04:32.814Z,60.93
2019-05-03T22:06:59.570Z,60.65
2019-05-03T22:09:26.229Z,60.36
2019-05-03T22:11:54.769Z,60.33
2019-05-03T22:14:34.978Z,60.35
2019-05-03T22:17:22.826Z,60.11
2019-05-03T22:19:50.987Z,61.28
2019-05-03T22:22:28.787Z,61.27
2019-05-03T22:24:57.364Z,61.33
2019-05-03T22:27:25.036Z,60.87
2019-05-03T22:29:51.733Z,61.73
2019-05-03T22:32:18.770Z,61.59
2019-05-03T22:34:47.097Z,61.41
2019-05-03T22:37:14.334Z,61.00
2019-05-03T22:39:42.416Z,61.77
2019-05-03T22:42:09.081Z,61.82
2019-05-03T22:44:35.877Z,62.28
2019-05-03T22:47:02.744Z,63.51
2019-05-03T22:49:29.860Z,63.96
2019-05-03T22:51:56.693Z,65.70
2019-05-03T22:54:24.596Z,65.42
2019-05-03T22:56:51.654Z,65.27
2019-05-03T22:59:18.477Z,65.37
2019-05-03T23:01:45.827Z,66.23
2019-05-03T23:04:14.648Z,64.76
2019-05-03T23:06:41.848Z,66.07
2019-05-03T23:09:08.672Z,65.41
2019-05-03T23:11:35.435Z,67.00
2019-05-03T23:14:04.653Z,65.92
2019-05-03T23:16:32.407Z,64.41
2019-05-03T23:18:59.753Z,66.09
2019-05-03T23:21:28.477Z,66.43
2019-05-03T23:23:55.126Z,66.64
2019-05-03T23:26:22.093Z,67.40
2019-05-03T23:28:48.768Z,65.99
2019-05-03T23:31:15.813Z,68.17
2019-05-03T23:33:42.791Z,67.75
2019-05-03T23:36:11.470Z,68.17
2019-05-03T23:38:38.769Z,66.29
2019-05-03T23:41:05.853Z,67.65
2019-05-03T23:43:35.809Z,66.26
2019-05-03T23:46:06.110Z,67.15
2019-05-03T23:48:34.942Z,67.91
2019-05-03T23:51:04.826Z,67.28
2019-05-03T23:53:31.922Z,68.18
2019-05-03T23:56:01.083Z,67.36
2019-05-03T23:58:28.223Z,67.08
